createdAt,value
2018-06-20T00:01:37.526Z,100676.98
2018-06-20T00:04:06.530Z,100675.63
2018-06-20T00:06:38.594Z,100686.13
2018-06-20T00:09:10.574Z,100677.33
2018-06-20T00:11:39.491Z,100672.05
2018-06-20T00:14:08.385Z,100674.20
2018-06-20T00:16:37.007Z,100672.41
2018-06-20T00:19:05.473Z,100675.45
2018-06-20T00:21:34.032Z,100681.56
2018-06-20T00:24:02.473Z,100687.24
2018-06-20T00:26:31.472Z,100699.52
2018-06-20T00:29:00.062Z,100699.46
2018-06-20T00:31:28.768Z,100698.13
2018-06-20T00:33:58.389Z,100692.86
2018-06-20T00:36:29.696Z,100695.90
2018-06-20T00:38:58.237Z,100701.16
2018-06-20T00:41:26.705Z,100706.00
2018-06-20T00:43:55.461Z,100693.70
2018-06-20T00:46:24.238Z,100702.44
2018-06-20T00:48:52.861Z,100712.92
2018-06-20T00:51:21.710Z,100702.34
2018-06-20T00:53:50.137Z,100709.77
2018-06-20T00:56:20.856Z,100710.20
2018-06-20T00:58:49.464Z,100706.66
2018-06-20T01:01:18.335Z,100724.66
2018-06-20T01:03:46.898Z,100708.80
2018-06-20T01:06:15.788Z,100718.36
2018-06-20T01:08:44.857Z,100721.83
2018-06-20T01:11:13.821Z,100723.52
2018-06-20T01:13:42.250Z,100714.23
2018-06-20T01:16:11.325Z,100723.42
2018-06-20T01:18:39.877Z,100722.52
2018-06-20T01:21:08.924Z,100725.13
2018-06-20T01:23:37.413Z,100720.27
2018-06-20T01:26:06.418Z,100737.78
2018-06-20T01:28:34.829Z,100732.92
2018-06-20T01:31:03.342Z,100734.57
2018-06-20T01:33:32.825Z,100739.38
2018-06-20T01:36:01.433Z,100741.09
2018-06-20T01:38:29.881Z,100734.47
2018-06-20T01:40:58.321Z,100738.38
2018-06-20T01:43:26.905Z,100738.81
2018-06-20T01:45:55.325Z,100732.20
2018-06-20T01:48:23.801Z,100737.42
2018-06-20T01:50:56.295Z,100753.23
2018-06-20T01:53:25.253Z,100744.45
2018-06-20T01:55:53.755Z,100747.05
2018-06-20T01:58:23.067Z,100750.95
2018-06-20T02:00:51.618Z,100753.09
2018-06-20T02:03:20.053Z,100758.33
2018-06-20T02:05:48.505Z,100763.56
2018-06-20T02:08:17.276Z,100762.70
2018-06-20T02:10:45.802Z,100761.76
2018-06-20T02:13:14.233Z,100781.94
2018-06-20T02:15:43.185Z,100776.20
2018-06-20T02:18:11.622Z,100781.42
2018-06-20T02:20:40.141Z,100787.55
2018-06-20T02:23:08.737Z,100780.11
2018-06-20T02:25:37.818Z,100785.38
2018-06-20T02:28:06.489Z,100788.01
2018-06-20T02:30:35.050Z,100786.63
2018-06-20T02:33:03.726Z,100792.78
2018-06-20T02:35:32.545Z,100793.20
2018-06-20T02:38:00.977Z,100786.63
2018-06-20T02:40:29.483Z,100783.57
2018-06-20T02:42:58.293Z,100798.52
2018-06-20T02:45:26.830Z,100805.98
2018-06-20T02:47:58.177Z,100806.42
2018-06-20T02:50:26.777Z,100807.70
2018-06-20T02:52:55.315Z,100823.91
2018-06-20T02:55:23.742Z,100811.65
2018-06-20T02:57:52.306Z,100816.87
2018-06-20T03:00:21.161Z,100811.19
2018-06-20T03:02:49.797Z,100813.84
2018-06-20T03:05:18.266Z,100817.77
2018-06-20T03:07:46.786Z,100809.91
2018-06-20T03:10:15.345Z,100814.73
2018-06-20T03:12:43.765Z,100826.57
2018-06-20T03:15:12.409Z,100830.09
2018-06-20T03:17:40.835Z,100834.95
2018-06-20T03:20:09.583Z,100829.27
2018-06-20T03:22:38.053Z,100836.30
2018-06-20T03:25:06.514Z,100837.61
2018-06-20T03:27:34.941Z,100845.11
2018-06-20T03:30:03.790Z,100829.35
2018-06-20T03:32:32.510Z,100827.20
2018-06-20T03:35:01.006Z,100828.12
2018-06-20T03:37:29.436Z,100823.78
2018-06-20T03:39:57.877Z,100824.70
2018-06-20T03:42:26.321Z,100836.59
2018-06-20T03:44:54.797Z,100832.25
2018-06-20T03:47:23.290Z,100838.88
2018-06-20T03:49:52.003Z,100837.20
2018-06-20T03:52:20.429Z,100833.77
2018-06-20T03:54:49.521Z,100836.45
2018-06-20T03:57:18.274Z,100842.23
2018-06-20T03:59:46.706Z,100848.41
2018-06-20T04:02:15.156Z,100837.95
2018-06-20T04:04:43.837Z,100838.89
2018-06-20T04:07:12.783Z,100847.28
2018-06-20T04:09:41.205Z,100853.00
2018-06-20T04:12:09.873Z,100871.98
2018-06-20T04:14:38.910Z,100868.08
2018-06-20T04:17:07.355Z,100858.52
2018-06-20T04:19:36.125Z,100857.69
2018-06-20T04:22:04.885Z,100862.98
2018-06-20T04:24:33.582Z,100858.62
2018-06-20T04:27:02.018Z,100859.08
2018-06-20T04:29:30.461Z,100861.77
2018-06-20T04:31:59.444Z,100851.31
2018-06-20T04:34:27.886Z,100853.11
2018-06-20T04:36:56.393Z,100851.80
2018-06-20T04:39:24.946Z,100868.08
2018-06-20T04:41:53.774Z,100854.94
2018-06-20T04:44:22.354Z,100851.03
2018-06-20T04:46:50.949Z,100843.61
2018-06-20T04:49:19.551Z,100840.16
2018-06-20T04:51:47.977Z,100864.80
2018-06-20T04:54:16.869Z,100856.95
2018-06-20T04:56:46.353Z,100848.61
2018-06-20T04:59:14.774Z,100840.30
2018-06-20T05:01:43.211Z,100854.82
2018-06-20T05:04:11.959Z,100854.44
2018-06-20T05:06:40.649Z,100845.28
2018-06-20T05:09:14.440Z,100864.26
2018-06-20T05:11:43.137Z,100844.56
2018-06-20T05:14:12.641Z,100836.70
2018-06-20T05:16:41.217Z,100854.78
2018-06-20T05:19:09.950Z,100844.72
2018-06-20T05:21:38.417Z,100847.88
2018-06-20T05:24:07.139Z,100850.14
2018-06-20T05:26:35.849Z,100841.41
2018-06-20T05:29:04.626Z,100854.20
2018-06-20T05:31:33.074Z,100861.75
2018-06-20T05:34:01.522Z,100852.98
2018-06-20T05:36:30.201Z,100852.62
2018-06-20T05:38:58.742Z,100844.31
2018-06-20T05:41:27.241Z,100841.30
2018-06-20T05:43:55.777Z,100864.63
2018-06-20T05:46:24.400Z,100844.00
2018-06-20T05:48:52.930Z,100872.20
2018-06-20T05:51:22.069Z,100856.41
2018-06-20T05:53:50.800Z,100861.30
2018-06-20T05:56:19.333Z,100845.95
2018-06-20T05:58:47.796Z,100849.95
2018-06-20T06:01:17.745Z,100868.45
2018-06-20T06:03:47.301Z,100860.94
2018-06-20T06:06:16.795Z,100857.42
2018-06-20T06:08:46.552Z,100853.48
2018-06-20T06:11:15.233Z,100848.27
2018-06-20T06:13:43.865Z,100846.58
2018-06-20T06:16:12.580Z,100845.75
2018-06-20T06:18:41.611Z,100858.55
2018-06-20T06:21:10.082Z,100864.75
2018-06-20T06:23:38.530Z,100864.40
2018-06-20T06:26:07.189Z,100859.20
2018-06-20T06:28:35.777Z,100864.55
2018-06-20T06:31:04.340Z,100853.58
2018-06-20T06:33:33.230Z,100862.02
2018-06-20T06:36:01.680Z,100860.72
2018-06-20T06:38:30.267Z,100861.14
2018-06-20T06:40:59.129Z,100855.84
2018-06-20T06:43:27.563Z,100857.66
2018-06-20T06:45:56.029Z,100858.98
2018-06-20T06:48:24.890Z,100842.30
2018-06-20T06:50:53.422Z,100861.27
2018-06-20T06:53:21.965Z,100853.39
2018-06-20T06:55:50.503Z,100861.84
2018-06-20T06:58:19.103Z,100870.70
2018-06-20T07:00:47.669Z,100860.59
2018-06-20T07:03:16.223Z,100860.17
2018-06-20T07:05:44.794Z,100868.63
2018-06-20T07:08:13.400Z,100860.69
2018-06-20T07:10:41.954Z,100884.09
2018-06-20T07:13:10.493Z,100868.27
2018-06-20T07:15:39.513Z,100861.27
2018-06-20T07:18:08.268Z,100855.11
2018-06-20T07:20:36.817Z,100860.43
2018-06-20T07:23:06.288Z,100852.09
2018-06-20T07:25:35.505Z,100842.92
2018-06-20T07:28:05.866Z,100852.23
2018-06-20T07:30:34.346Z,100859.78
2018-06-20T07:33:03.249Z,100842.66
2018-06-20T07:35:32.369Z,100855.50
2018-06-20T07:38:00.855Z,100846.64
2018-06-20T07:40:29.645Z,100868.77
2018-06-20T07:42:58.602Z,100873.74
2018-06-20T07:45:27.073Z,100866.28
2018-06-20T07:47:55.545Z,100892.78
2018-06-20T07:50:24.411Z,100883.11
2018-06-20T07:52:52.968Z,100880.95
2018-06-20T07:55:21.508Z,100880.39
2018-06-20T07:57:50.070Z,100880.38
2018-06-20T08:00:23.835Z,100881.70
2018-06-20T08:03:08.807Z,100867.91
2018-06-20T08:05:42.948Z,100851.72
2018-06-20T08:08:16.665Z,100865.34
2018-06-20T08:10:50.408Z,100878.45
2018-06-20T08:13:24.190Z,100878.52
2018-06-20T08:15:58.298Z,100858.62
2018-06-20T08:18:33.674Z,100869.67
2018-06-20T08:21:03.190Z,100878.86
2018-06-20T08:23:31.637Z,100865.40
2018-06-20T08:26:00.214Z,100883.62
2018-06-20T08:28:28.841Z,100849.05
2018-06-20T08:30:57.645Z,100847.02
2018-06-20T08:33:26.216Z,100841.86
2018-06-20T08:35:54.666Z,100844.19
2018-06-20T08:38:23.213Z,100840.08
2018-06-20T08:40:51.695Z,100868.88
2018-06-20T08:43:20.143Z,100844.32
2018-06-20T08:45:48.676Z,100840.52
2018-06-20T08:48:17.629Z,100863.73
2018-06-20T08:50:46.521Z,100858.88
2018-06-20T08:53:15.000Z,100842.19
2018-06-20T08:55:43.893Z,100830.25
2018-06-20T08:58:12.574Z,100838.89
2018-06-20T09:00:46.449Z,100831.38
2018-06-20T09:03:15.233Z,100827.61
2018-06-20T09:05:49.014Z,100831.28
2018-06-20T09:08:22.972Z,100817.39
2018-06-20T09:10:56.652Z,100828.03
2018-06-20T09:13:30.695Z,100819.64
2018-06-20T09:16:04.334Z,100809.50
2018-06-20T09:18:39.473Z,100814.00
2018-06-20T09:21:08.177Z,100816.91
2018-06-20T09:23:36.725Z,100829.47
2018-06-20T09:26:06.037Z,100832.11
2018-06-20T09:28:34.602Z,100858.22
2018-06-20T09:31:03.012Z,100843.63
2018-06-20T09:33:31.441Z,100885.44
2018-06-20T09:36:00.015Z,100848.91
2018-06-20T09:38:28.528Z,100852.02
2018-06-20T09:40:57.285Z,100844.57
2018-06-20T09:43:26.074Z,100841.56
2018-06-20T09:45:54.639Z,100842.09
2018-06-20T09:48:23.069Z,100855.95
2018-06-20T09:50:58.001Z,100846.81
2018-06-20T09:53:26.689Z,100849.87
2018-06-20T09:55:55.580Z,100841.63
2018-06-20T09:58:24.331Z,100843.08
2018-06-20T10:00:57.989Z,100844.97
2018-06-20T10:03:32.597Z,100845.52
2018-06-20T10:06:06.574Z,100865.45
2018-06-20T10:08:40.939Z,100873.25
2018-06-20T10:11:14.844Z,100880.48
2018-06-20T10:13:44.625Z,100875.67
2018-06-20T10:16:13.245Z,100850.87
2018-06-20T10:18:41.945Z,100853.41
2018-06-20T10:21:11.659Z,100847.05
2018-06-20T10:23:40.298Z,100839.28
2018-06-20T10:26:09.043Z,100848.05
2018-06-20T10:28:37.918Z,100862.82
2018-06-20T10:31:06.406Z,100847.42
2018-06-20T10:33:34.873Z,100859.02
2018-06-20T10:36:03.982Z,100840.53
2018-06-20T10:38:32.782Z,100833.49
2018-06-20T10:41:01.251Z,100846.89
2018-06-20T10:43:30.072Z,100830.55
2018-06-20T10:46:04.724Z,100782.48
2018-06-20T10:48:33.421Z,100812.87
2018-06-20T10:51:02.482Z,100818.16
2018-06-20T10:53:31.185Z,100812.47
2018-06-20T10:55:59.973Z,100812.52
2018-06-20T10:58:33.901Z,100811.67
2018-06-20T11:01:08.536Z,100803.72
2018-06-20T11:03:42.393Z,100798.34
2018-06-20T11:06:16.114Z,100788.91
2018-06-20T11:08:49.960Z,100811.45
2018-06-20T11:11:23.542Z,100811.58
2018-06-20T11:13:52.048Z,100808.11
2018-06-20T11:16:20.540Z,100798.77
2018-06-20T11:18:52.166Z,100818.66
2018-06-20T11:21:21.247Z,100800.52
2018-06-20T11:23:50.002Z,100808.94
2018-06-20T11:26:18.538Z,100799.52
2018-06-20T11:28:47.093Z,100800.28
2018-06-20T11:31:16.082Z,100786.37
2018-06-20T11:33:44.569Z,100791.98
2018-06-20T11:36:13.282Z,100797.33
2018-06-20T11:38:41.877Z,100796.97
2018-06-20T11:41:10.894Z,100812.86
2018-06-20T11:43:39.660Z,100807.23
2018-06-20T11:46:13.573Z,100782.98
2018-06-20T11:48:42.857Z,100777.17
2018-06-20T11:51:11.441Z,100783.58
2018-06-20T11:53:40.091Z,100779.86
2018-06-20T11:56:10.057Z,100772.05
2018-06-20T11:58:43.893Z,100769.02
2018-06-20T12:03:20.173Z,100769.08
2018-06-20T12:08:00.459Z,100789.25
2018-06-20T12:10:34.361Z,100797.39
2018-06-20T12:13:08.343Z,100794.08
2018-06-20T12:15:42.131Z,100780.46
2018-06-20T12:18:15.936Z,100767.70
2018-06-20T12:20:49.980Z,100770.89
2018-06-20T12:23:23.856Z,100754.47
2018-06-20T12:25:57.497Z,100768.81
2018-06-20T12:28:31.289Z,100769.39
2018-06-20T12:31:05.113Z,100760.12
2018-06-20T12:33:38.913Z,100757.27
2018-06-20T12:36:12.601Z,100770.31
2018-06-20T12:38:46.792Z,100766.99
2018-06-20T12:41:20.417Z,100771.03
2018-06-20T12:43:54.257Z,100774.66
2018-06-20T12:46:29.045Z,100758.40
2018-06-20T12:48:57.899Z,100763.03
2018-06-20T12:51:26.378Z,100755.22
2018-06-20T12:53:55.019Z,100761.91
2018-06-20T12:56:24.639Z,100764.73
2018-06-20T12:58:54.809Z,100766.11
2018-06-20T13:01:23.357Z,100763.99
2018-06-20T13:03:51.845Z,100763.60
2018-06-20T13:06:20.638Z,100773.33
2018-06-20T13:08:49.331Z,100671.89
2018-06-20T13:11:18.069Z,100778.20
2018-06-20T13:13:46.815Z,100760.07
2018-06-20T13:16:15.629Z,100759.13
2018-06-20T13:18:55.385Z,100779.92
2018-06-20T13:21:24.696Z,100764.01
2018-06-20T13:23:53.253Z,100760.45
2018-06-20T13:26:21.985Z,100775.92
2018-06-20T13:28:50.859Z,100779.02
2018-06-20T13:31:26.062Z,100778.14
2018-06-20T13:33:59.798Z,100774.62
2018-06-20T13:36:33.906Z,100774.14
2018-06-20T13:39:07.726Z,100769.23
2018-06-20T13:41:41.535Z,100777.27
2018-06-20T13:44:10.990Z,100777.75
2018-06-20T13:46:45.707Z,100782.59
2018-06-20T13:49:14.383Z,100778.66
2018-06-20T13:51:42.831Z,100773.85
2018-06-20T13:54:11.477Z,100775.19
2018-06-20T13:56:40.413Z,100776.51
2018-06-20T13:59:09.024Z,100776.44
2018-06-20T14:01:37.675Z,100783.56
2018-06-20T14:04:07.409Z,100786.71
2018-06-20T14:06:36.250Z,100774.78
2018-06-20T14:09:06.605Z,100784.95
2018-06-20T14:11:35.710Z,100773.51
2018-06-20T14:14:04.255Z,100785.47
2018-06-20T14:16:33.734Z,100773.53
2018-06-20T14:19:02.413Z,100776.20
2018-06-20T14:21:39.870Z,100778.86
2018-06-20T14:24:09.613Z,100780.62
2018-06-20T14:26:39.758Z,100780.61
2018-06-20T14:29:09.149Z,100782.81
2018-06-20T14:31:42.849Z,100766.47
2018-06-20T14:34:17.123Z,100787.70
2018-06-20T14:36:50.967Z,100771.36
2018-06-20T14:39:24.632Z,100769.59
2018-06-20T14:41:59.026Z,100759.88
2018-06-20T14:44:27.856Z,100763.41
2018-06-20T14:46:56.656Z,100759.44
2018-06-20T14:49:25.159Z,100759.88
2018-06-20T14:51:53.861Z,100759.43
2018-06-20T14:54:22.336Z,100767.38
2018-06-20T14:56:51.222Z,100765.59
2018-06-20T14:59:19.765Z,100759.83
2018-06-20T15:01:48.289Z,100763.31
2018-06-20T15:04:17.033Z,100749.63
2018-06-20T15:06:45.857Z,100764.62
2018-06-20T15:09:14.500Z,100765.92
2018-06-20T15:11:42.997Z,100760.55
2018-06-20T15:14:12.502Z,100756.05
2018-06-20T15:16:46.459Z,100750.25
2018-06-20T15:19:15.022Z,100750.20
2018-06-20T15:21:44.081Z,100754.12
2018-06-20T15:24:13.522Z,100753.11
2018-06-20T15:26:47.858Z,100751.17
2018-06-20T15:29:21.894Z,100761.05
2018-06-20T15:31:55.546Z,100765.69
2018-06-20T15:34:29.358Z,100749.16
2018-06-20T15:37:03.013Z,100758.17
2018-06-20T15:39:31.883Z,100757.11
2018-06-20T15:42:00.824Z,100759.59
2018-06-20T15:44:29.269Z,100756.33
2018-06-20T15:46:58.182Z,100757.81
2018-06-20T15:49:26.661Z,100762.36
2018-06-20T15:51:56.241Z,100753.74
2018-06-20T15:54:25.481Z,100753.95
2018-06-20T15:56:54.031Z,100751.55
2018-06-20T15:59:22.511Z,100743.88
2018-06-20T16:01:51.554Z,100740.66
2018-06-20T16:04:20.346Z,100745.34
2018-06-20T16:06:49.490Z,100750.95
2018-06-20T16:09:23.310Z,100745.26
2018-06-20T16:11:52.742Z,100737.34
2018-06-20T16:14:21.327Z,100730.20
2018-06-20T16:16:49.937Z,100723.59
2018-06-20T16:19:23.642Z,100716.84
2018-06-20T16:21:58.511Z,100709.73
2018-06-20T16:24:32.407Z,100717.14
2018-06-20T16:27:06.248Z,100710.99
2018-06-20T16:29:39.877Z,100700.02
2018-06-20T16:32:08.915Z,100703.53
2018-06-20T16:34:37.482Z,100705.28
2018-06-20T16:37:05.958Z,100692.95
2018-06-20T16:39:34.707Z,100691.22
2018-06-20T16:42:04.144Z,100687.73
2018-06-20T16:44:32.594Z,100694.79
2018-06-20T16:47:01.437Z,100682.81
2018-06-20T16:49:30.129Z,100691.50
2018-06-20T16:51:58.558Z,100689.67
2018-06-20T16:54:27.050Z,100696.16
2018-06-20T16:56:55.991Z,100690.42
2018-06-20T16:59:24.528Z,100676.84
2018-06-20T17:01:58.352Z,100678.27
2018-06-20T17:04:27.038Z,100667.84
2018-06-20T17:06:55.473Z,100669.58
2018-06-20T17:09:23.939Z,100680.47
2018-06-20T17:11:58.261Z,100667.70
2018-06-20T17:14:32.106Z,100658.53
2018-06-20T17:17:05.818Z,100654.30
2018-06-20T17:19:39.621Z,100653.48
2018-06-20T17:22:13.419Z,100652.58
2018-06-20T17:24:47.336Z,100644.66
2018-06-20T17:27:16.234Z,100659.95
2018-06-20T17:29:44.859Z,100654.64
2018-06-20T17:32:14.107Z,100654.23
2018-06-20T17:34:43.210Z,100652.52
2018-06-20T17:37:12.123Z,100657.06
2018-06-20T17:39:40.639Z,100650.48
2018-06-20T17:42:09.565Z,100655.95
2018-06-20T17:44:38.097Z,100643.93
2018-06-20T17:47:06.693Z,100644.25
2018-06-20T17:49:35.306Z,100639.30
2018-06-20T17:52:03.968Z,100637.02
2018-06-20T17:54:32.449Z,100628.53
2018-06-20T17:57:02.507Z,100634.55
2018-06-20T17:59:31.081Z,100614.79
2018-06-20T18:01:59.826Z,100613.84
2018-06-20T18:06:35.154Z,100614.70
2018-06-20T18:09:08.866Z,100615.61
2018-06-20T18:11:42.641Z,100616.37
2018-06-20T18:14:16.639Z,100600.01
2018-06-20T18:16:50.391Z,100600.38
2018-06-20T18:19:19.796Z,100592.31
2018-06-20T18:21:48.528Z,100591.40
2018-06-20T18:24:17.108Z,100589.66
2018-06-20T18:26:46.541Z,100591.00
2018-06-20T18:29:15.011Z,100588.41
2018-06-20T18:31:43.557Z,100588.77
2018-06-20T18:34:12.617Z,100590.81
2018-06-20T18:36:41.321Z,100589.44
2018-06-20T18:39:10.636Z,100584.12
2018-06-20T18:41:39.296Z,100575.40
2018-06-20T18:44:07.783Z,100575.40
2018-06-20T18:46:36.223Z,100573.30
2018-06-20T18:49:05.035Z,100562.39
2018-06-20T18:51:35.569Z,100562.91
2018-06-20T18:54:04.127Z,100562.58
2018-06-20T18:56:33.092Z,100557.81
2018-06-20T18:59:06.740Z,100545.20
2018-06-20T19:01:40.457Z,100537.41
2018-06-20T19:04:14.290Z,100537.89
2018-06-20T19:06:48.276Z,100541.48
2018-06-20T19:09:19.482Z,100537.09
2018-06-20T19:11:48.192Z,100541.83
2018-06-20T19:14:16.817Z,100534.75
2018-06-20T19:16:45.534Z,100533.50
2018-06-20T19:19:14.365Z,100532.61
2018-06-20T19:21:43.266Z,100529.91
2018-06-20T19:24:12.182Z,100524.56
2018-06-20T19:26:40.813Z,100520.11
2018-06-20T19:29:09.548Z,100519.63
2018-06-20T19:31:38.437Z,100515.20
2018-06-20T19:34:06.953Z,100522.28
2018-06-20T19:36:35.826Z,100521.94
2018-06-20T19:39:10.947Z,100514.11
2018-06-20T19:41:39.465Z,100504.02
2018-06-20T19:44:13.333Z,100503.59
2018-06-20T19:46:41.909Z,100501.93
2018-06-20T19:49:10.814Z,100506.78
2018-06-20T19:51:39.313Z,100504.50
2018-06-20T19:54:08.107Z,100507.06
2018-06-20T19:56:36.538Z,100505.61
2018-06-20T19:59:05.299Z,100509.55
2018-06-20T20:01:34.134Z,100520.02
2018-06-20T20:04:02.740Z,100517.36
2018-06-20T20:06:31.239Z,100523.47
2018-06-20T20:09:00.768Z,100515.08
2018-06-20T20:11:29.233Z,100523.41
2018-06-20T20:13:57.905Z,100519.38
2018-06-20T20:16:26.702Z,100512.28
2018-06-20T20:18:55.773Z,100517.09
2018-06-20T20:21:24.269Z,100522.32
2018-06-20T20:23:53.438Z,100518.81
2018-06-20T20:26:22.257Z,100520.58
2018-06-20T20:28:51.033Z,100525.00
2018-06-20T20:31:19.690Z,100517.16
2018-06-20T20:33:48.234Z,100517.70
2018-06-20T20:36:16.726Z,100510.28
2018-06-20T20:38:45.193Z,100520.27
2018-06-20T20:41:14.058Z,100517.67
2018-06-20T20:43:42.673Z,100518.56
2018-06-20T20:46:11.615Z,100517.25
2018-06-20T20:48:40.293Z,100514.98
2018-06-20T20:51:08.805Z,100516.73
2018-06-20T20:53:37.757Z,100511.02
2018-06-20T20:56:06.517Z,100516.80
2018-06-20T20:58:35.202Z,100514.66
2018-06-20T21:01:04.020Z,100525.61
2018-06-20T21:03:32.521Z,100519.88
2018-06-20T21:06:01.374Z,100516.33
2018-06-20T21:08:29.883Z,100528.14
2018-06-20T21:10:58.353Z,100527.66
2018-06-20T21:13:27.069Z,100523.33
2018-06-20T21:15:55.976Z,100518.50
2018-06-20T21:18:24.433Z,100515.88
2018-06-20T21:20:53.013Z,100510.14
2018-06-20T21:23:21.695Z,100512.34
2018-06-20T21:25:50.209Z,100509.74
2018-06-20T21:28:18.680Z,100510.59
2018-06-20T21:30:48.330Z,100511.94
2018-06-20T21:33:16.944Z,100504.98
2018-06-20T21:35:45.642Z,100507.27
2018-06-20T21:38:14.315Z,100498.08
2018-06-20T21:40:43.121Z,100495.39
2018-06-20T21:43:11.611Z,100503.70
2018-06-20T21:45:40.665Z,100500.30
2018-06-20T21:48:09.221Z,100503.78
2018-06-20T21:50:37.689Z,100504.64
2018-06-20T21:53:06.122Z,100502.87
2018-06-20T21:55:34.897Z,100499.33
2018-06-20T21:58:03.373Z,100495.39
2018-06-20T22:00:32.392Z,100497.16
2018-06-20T22:03:00.996Z,100496.70
2018-06-20T22:05:29.762Z,100497.59
2018-06-20T22:07:58.572Z,100491.45
2018-06-20T22:10:27.022Z,100493.25
2018-06-20T22:12:55.621Z,100487.17
2018-06-20T22:15:24.073Z,100491.11
2018-06-20T22:17:52.514Z,100480.55
2018-06-20T22:20:21.020Z,100479.23
2018-06-20T22:22:49.704Z,100475.73
2018-06-20T22:25:18.385Z,100471.80
2018-06-20T22:27:46.929Z,100462.17
2018-06-20T22:30:15.759Z,100464.37
2018-06-20T22:32:45.315Z,100466.97
2018-06-20T22:35:14.498Z,100464.37
2018-06-20T22:37:43.246Z,100466.57
2018-06-20T22:40:12.210Z,100468.77
2018-06-20T22:42:40.798Z,100475.77
2018-06-20T22:45:09.543Z,100472.67
2018-06-20T22:47:38.127Z,100466.11
2018-06-20T22:50:06.621Z,100431.22
2018-06-20T22:52:35.235Z,100464.00
2018-06-20T22:55:04.090Z,100457.04
2018-06-20T22:57:32.684Z,100465.83
2018-06-20T23:00:01.461Z,100464.09
2018-06-20T23:02:29.959Z,100454.02
2018-06-20T23:04:58.946Z,100448.76
2018-06-20T23:07:28.571Z,100446.16
2018-06-20T23:09:57.062Z,100445.73
2018-06-20T23:12:26.060Z,100440.48
2018-06-20T23:14:55.558Z,100444.91
2018-06-20T23:17:24.081Z,100440.61
2018-06-20T23:19:52.688Z,100440.16
2018-06-20T23:22:21.706Z,100432.28
2018-06-20T23:24:50.861Z,100423.52
2018-06-20T23:27:19.462Z,100416.50
2018-06-20T23:29:48.366Z,100415.67
2018-06-20T23:32:17.073Z,100416.09
2018-06-20T23:34:45.738Z,100408.14
2018-06-20T23:37:14.215Z,100403.32
2018-06-20T23:39:42.998Z,100401.09
2018-06-20T23:42:11.503Z,100404.09
2018-06-20T23:44:40.355Z,100397.96
2018-06-20T23:47:08.870Z,100392.23
2018-06-20T23:49:38.858Z,100393.03
2018-06-20T23:52:07.362Z,100399.09
2018-06-20T23:54:35.830Z,100398.61
2018-06-20T23:57:04.418Z,100403.45
2018-06-20T23:59:33.782Z,100395.61
